Tea, South Dakota
Current Conditions -  °F | °C
As of 8:20 AM on Sunday 21 Dec 2014 (Local Time) from KFSD Reporting Station
Moderate Fog Moderate Fog  
Wind Chill: 24°   Ceiling: 200
Heat Index: 32°   Visibility: 0.25mi
Dew Point: 31°   Wind: 9mph
Humidity: 96%   Direction: 150°SSE
Pressure: 29.75"   Gusts: NA
Location:  43.45°N, 96.84°W
Report Text: KFSD 211420Z 15008KT 1/4SM R03/1600V1800FT FG VV002 00/M01 A2975 RMK AO2 TWR VIS 1/2 SGE58FZRAB58E18 P0000 I1001 T00001006
Loading
Personal Weather Stations






























Interactive Weather Map New forecast layout! Learn more

10-Day Weather Forecast

Advertisements
Track Severe Weather on mobile